sensor_id;sensor_type;location;lat;lon;timestamp;temperature;humidity
7970;DHT22;4030;52.362;9.206;2023-06-26T00:00:19;25.00;74.90
7970;DHT22;4030;52.362;9.206;2023-06-26T00:02:45;25.00;75.90
7970;DHT22;4030;52.362;9.206;2023-06-26T00:05:11;24.90;75.00
7970;DHT22;4030;52.362;9.206;2023-06-26T00:07:38;24.90;75.00
7970;DHT22;4030;52.362;9.206;2023-06-26T00:10:06;24.90;75.10
7970;DHT22;4030;52.362;9.206;2023-06-26T00:12:32;24.90;75.10
7970;DHT22;4030;52.362;9.206;2023-06-26T00:14:58;24.80;75.10
7970;DHT22;4030;52.362;9.206;2023-06-26T00:17:24;24.80;75.20
7970;DHT22;4030;52.362;9.206;2023-06-26T00:19:50;24.80;75.20
7970;DHT22;4030;52.362;9.206;2023-06-26T00:22:16;24.80;75.20
7970;DHT22;4030;52.362;9.206;2023-06-26T00:24:42;24.80;75.20
7970;DHT22;4030;52.362;9.206;2023-06-26T00:27:07;24.80;75.30
7970;DHT22;4030;52.362;9.206;2023-06-26T00:29:33;24.70;75.20
7970;DHT22;4030;52.362;9.206;2023-06-26T00:31:59;24.70;75.30
7970;DHT22;4030;52.362;9.206;2023-06-26T00:34:24;24.70;75.30
7970;DHT22;4030;52.362;9.206;2023-06-26T00:36:50;24.70;76.30
7970;DHT22;4030;52.362;9.206;2023-06-26T00:39:16;24.60;75.30
7970;DHT22;4030;52.362;9.206;2023-06-26T00:41:41;24.60;75.40
7970;DHT22;4030;52.362;9.206;2023-06-26T00:44:07;24.60;75.50
7970;DHT22;4030;52.362;9.206;2023-06-26T00:46:34;24.60;75.50
7970;DHT22;4030;52.362;9.206;2023-06-26T00:49:01;24.50;75.50
7970;DHT22;4030;52.362;9.206;2023-06-26T00:51:30;24.50;75.50
7970;DHT22;4030;52.362;9.206;2023-06-26T00:53:56;24.50;75.60
7970;DHT22;4030;52.362;9.206;2023-06-26T00:56:23;24.50;75.60
7970;DHT22;4030;52.362;9.206;2023-06-26T00:58:49;24.40;75.60
7970;DHT22;4030;52.362;9.206;2023-06-26T01:01:15;24.40;76.50
7970;DHT22;4030;52.362;9.206;2023-06-26T01:03:46;24.40;75.70
7970;DHT22;4030;52.362;9.206;2023-06-26T01:06:17;24.40;75.80
7970;DHT22;4030;52.362;9.206;2023-06-26T01:08:45;24.40;75.80
7970;DHT22;4030;52.362;9.206;2023-06-26T01:11:13;24.30;75.70
7970;DHT22;4030;52.362;9.206;2023-06-26T01:13:40;24.30;75.70
7970;DHT22;4030;52.362;9.206;2023-06-26T01:16:16;24.30;75.00
7970;DHT22;4030;52.362;9.206;2023-06-26T01:18:45;24.30;75.80
7970;DHT22;4030;52.362;9.206;2023-06-26T01:21:12;24.20;75.20
7970;DHT22;4030;52.362;9.206;2023-06-26T01:23:57;24.20;75.20
7970;DHT22;4030;52.362;9.206;2023-06-26T01:26:31;24.20;75.20
7970;DHT22;4030;52.362;9.206;2023-06-26T01:29:02;24.20;76.00
7970;DHT22;4030;52.362;9.206;2023-06-26T01:31:29;24.10;75.90
7970;DHT22;4030;52.362;9.206;2023-06-26T01:33:59;24.10;76.00
7970;DHT22;4030;52.362;9.206;2023-06-26T01:36:26;24.10;76.00
7970;DHT22;4030;52.362;9.206;2023-06-26T01:38:52;24.10;76.10
7970;DHT22;4030;52.362;9.206;2023-06-26T01:41:18;24.10;76.20
7970;DHT22;4030;52.362;9.206;2023-06-26T01:44:07;24.00;76.10
7970;DHT22;4030;52.362;9.206;2023-06-26T01:46:43;24.00;76.20
7970;DHT22;4030;52.362;9.206;2023-06-26T01:52:40;24.00;76.30
7970;DHT22;4030;52.362;9.206;2023-06-26T01:58:09;23.90;76.40
7970;DHT22;4030;52.362;9.206;2023-06-26T02:00:36;23.90;76.40
7970;DHT22;4030;52.362;9.206;2023-06-26T02:03:02;23.90;76.80
7970;DHT22;4030;52.362;9.206;2023-06-26T02:05:30;23.90;76.50
7970;DHT22;4030;52.362;9.206;2023-06-26T02:07:56;23.90;76.40
7970;DHT22;4030;52.362;9.206;2023-06-26T02:10:22;23.80;76.30
7970;DHT22;4030;52.362;9.206;2023-06-26T02:12:47;23.80;76.30
7970;DHT22;4030;52.362;9.206;2023-06-26T02:15:13;23.80;76.40
7970;DHT22;4030;52.362;9.206;2023-06-26T02:17:39;23.80;76.30
7970;DHT22;4030;52.362;9.206;2023-06-26T02:20:05;23.80;76.40
7970;DHT22;4030;52.362;9.206;2023-06-26T02:22:31;23.80;76.30
7970;DHT22;4030;52.362;9.206;2023-06-26T02:24:57;23.80;76.40
7970;DHT22;4030;52.362;9.206;2023-06-26T02:27:22;23.80;76.30
7970;DHT22;4030;52.362;9.206;2023-06-26T02:29:48;23.80;76.30
7970;DHT22;4030;52.362;9.206;2023-06-26T02:32:14;23.70;76.10
7970;DHT22;4030;52.362;9.206;2023-06-26T02:34:39;23.70;76.10
7970;DHT22;4030;52.362;9.206;2023-06-26T02:37:05;23.70;76.10
7970;DHT22;4030;52.362;9.206;2023-06-26T02:39:33;23.70;76.10
7970;DHT22;4030;52.362;9.206;2023-06-26T02:42:00;23.70;76.00
7970;DHT22;4030;52.362;9.206;2023-06-26T02:44:25;23.70;76.10
7970;DHT22;4030;52.362;9.206;2023-06-26T02:46:51;23.70;76.10
7970;DHT22;4030;52.362;9.206;2023-06-26T02:49:16;23.70;76.00
7970;DHT22;4030;52.362;9.206;2023-06-26T02:51:42;23.70;76.30
7970;DHT22;4030;52.362;9.206;2023-06-26T02:54:08;23.70;75.90
7970;DHT22;4030;52.362;9.206;2023-06-26T02:56:33;23.70;76.00
7970;DHT22;4030;52.362;9.206;2023-06-26T02:58:59;23.70;76.00
7970;DHT22;4030;52.362;9.206;2023-06-26T03:01:25;23.70;76.00
7970;DHT22;4030;52.362;9.206;2023-06-26T03:03:51;23.60;76.00
7970;DHT22;4030;52.362;9.206;2023-06-26T03:06:16;23.60;75.90
7970;DHT22;4030;52.362;9.206;2023-06-26T03:08:42;23.60;75.90
7970;DHT22;4030;52.362;9.206;2023-06-26T03:11:08;23.60;75.90
7970;DHT22;4030;52.362;9.206;2023-06-26T03:13:35;23.60;75.90
7970;DHT22;4030;52.362;9.206;2023-06-26T03:16:02;23.60;75.80
7970;DHT22;4030;52.362;9.206;2023-06-26T03:18:28;23.60;75.90
7970;DHT22;4030;52.362;9.206;2023-06-26T03:20:55;23.60;75.80
7970;DHT22;4030;52.362;9.206;2023-06-26T03:23:22;23.60;75.80
7970;DHT22;4030;52.362;9.206;2023-06-26T03:25:48;23.60;75.80
7970;DHT22;4030;52.362;9.206;2023-06-26T03:28:14;23.60;75.70
7970;DHT22;4030;52.362;9.206;2023-06-26T03:30:40;23.60;75.70
7970;DHT22;4030;52.362;9.206;2023-06-26T03:33:06;23.60;75.70
7970;DHT22;4030;52.362;9.206;2023-06-26T03:35:31;23.60;75.60
7970;DHT22;4030;52.362;9.206;2023-06-26T03:37:58;23.60;75.70
7970;DHT22;4030;52.362;9.206;2023-06-26T03:40:23;23.60;75.70
7970;DHT22;4030;52.362;9.206;2023-06-26T03:42:49;23.60;75.60
7970;DHT22;4030;52.362;9.206;2023-06-26T03:45:15;23.60;75.60
7970;DHT22;4030;52.362;9.206;2023-06-26T03:47:41;23.50;75.60
7970;DHT22;4030;52.362;9.206;2023-06-26T03:50:07;23.50;75.60
7970;DHT22;4030;52.362;9.206;2023-06-26T03:52:33;23.60;75.60
7970;DHT22;4030;52.362;9.206;2023-06-26T03:54:58;23.50;75.60
7970;DHT22;4030;52.362;9.206;2023-06-26T03:57:24;23.50;76.50
7970;DHT22;4030;52.362;9.206;2023-06-26T03:59:50;23.50;75.70
7970;DHT22;4030;52.362;9.206;2023-06-26T04:02:16;23.50;75.60
7970;DHT22;4030;52.362;9.206;2023-06-26T04:04:41;23.50;75.70
7970;DHT22;4030;52.362;9.206;2023-06-26T04:07:07;23.50;75.70
7970;DHT22;4030;52.362;9.206;2023-06-26T04:09:33;23.50;75.70
7970;DHT22;4030;52.362;9.206;2023-06-26T04:11:58;23.50;75.70
7970;DHT22;4030;52.362;9.206;2023-06-26T04:14:24;23.50;75.70
7970;DHT22;4030;52.362;9.206;2023-06-26T04:16:50;23.50;75.70
7970;DHT22;4030;52.362;9.206;2023-06-26T04:19:15;23.50;75.70
7970;DHT22;4030;52.362;9.206;2023-06-26T04:21:41;23.50;75.70
7970;DHT22;4030;52.362;9.206;2023-06-26T04:24:07;23.50;75.70
7970;DHT22;4030;52.362;9.206;2023-06-26T04:26:33;23.50;75.70
7970;DHT22;4030;52.362;9.206;2023-06-26T04:28:59;23.50;75.90
7970;DHT22;4030;52.362;9.206;2023-06-26T04:31:25;23.50;75.90
7970;DHT22;4030;52.362;9.206;2023-06-26T04:33:51;23.50;75.80
7970;DHT22;4030;52.362;9.206;2023-06-26T04:36:18;23.60;75.90
7970;DHT22;4030;52.362;9.206;2023-06-26T04:38:44;23.60;76.00
7970;DHT22;4030;52.362;9.206;2023-06-26T04:41:09;23.60;75.90
7970;DHT22;4030;52.362;9.206;2023-06-26T04:43:35;23.60;75.90
7970;DHT22;4030;52.362;9.206;2023-06-26T04:46:02;23.60;75.90
7970;DHT22;4030;52.362;9.206;2023-06-26T04:48:28;23.60;75.90
7970;DHT22;4030;52.362;9.206;2023-06-26T04:50:56;23.60;75.90
7970;DHT22;4030;52.362;9.206;2023-06-26T04:53:22;23.70;75.90
7970;DHT22;4030;52.362;9.206;2023-06-26T04:55:49;23.70;75.90
7970;DHT22;4030;52.362;9.206;2023-06-26T04:58:15;23.70;75.90
7970;DHT22;4030;52.362;9.206;2023-06-26T05:00:41;23.70;76.00
7970;DHT22;4030;52.362;9.206;2023-06-26T05:03:12;23.70;75.90
7970;DHT22;4030;52.362;9.206;2023-06-26T05:05:39;23.70;75.90
7970;DHT22;4030;52.362;9.206;2023-06-26T05:08:15;23.70;75.80
7970;DHT22;4030;52.362;9.206;2023-06-26T05:10:42;23.80;75.90
7970;DHT22;4030;52.362;9.206;2023-06-26T05:13:07;23.80;75.80
7970;DHT22;4030;52.362;9.206;2023-06-26T05:15:33;23.80;75.70
7970;DHT22;4030;52.362;9.206;2023-06-26T05:17:59;23.90;75.70
7970;DHT22;4030;52.362;9.206;2023-06-26T05:20:24;23.90;75.70
7970;DHT22;4030;52.362;9.206;2023-06-26T05:22:50;23.90;75.60
7970;DHT22;4030;52.362;9.206;2023-06-26T05:25:18;24.00;75.70
7970;DHT22;4030;52.362;9.206;2023-06-26T05:27:47;24.00;75.50
7970;DHT22;4030;52.362;9.206;2023-06-26T05:30:13;24.10;75.50
7970;DHT22;4030;52.362;9.206;2023-06-26T05:32:40;24.10;75.40
7970;DHT22;4030;52.362;9.206;2023-06-26T05:35:06;24.10;75.20
7970;DHT22;4030;52.362;9.206;2023-06-26T05:37:33;24.20;75.20
7970;DHT22;4030;52.362;9.206;2023-06-26T05:40:00;24.20;75.00
7970;DHT22;4030;52.362;9.206;2023-06-26T05:42:29;24.30;75.00
7970;DHT22;4030;52.362;9.206;2023-06-26T05:44:55;24.30;74.80
7970;DHT22;4030;52.362;9.206;2023-06-26T05:47:21;24.40;74.70
7970;DHT22;4030;52.362;9.206;2023-06-26T05:49:47;24.40;74.50
7970;DHT22;4030;52.362;9.206;2023-06-26T05:52:13;24.50;74.30
7970;DHT22;4030;52.362;9.206;2023-06-26T05:54:39;24.50;74.00
7970;DHT22;4030;52.362;9.206;2023-06-26T05:57:06;24.60;73.90
7970;DHT22;4030;52.362;9.206;2023-06-26T05:59:32;24.60;73.60
7970;DHT22;4030;52.362;9.206;2023-06-26T06:01:58;24.70;73.30
7970;DHT22;4030;52.362;9.206;2023-06-26T06:04:23;24.70;73.00
7970;DHT22;4030;52.362;9.206;2023-06-26T06:06:49;24.80;72.90
7970;DHT22;4030;52.362;9.206;2023-06-26T06:09:15;24.80;72.70
7970;DHT22;4030;52.362;9.206;2023-06-26T06:11:41;24.90;72.50
7970;DHT22;4030;52.362;9.206;2023-06-26T06:14:06;25.00;71.90
7970;DHT22;4030;52.362;9.206;2023-06-26T06:16:32;25.00;71.20
7970;DHT22;4030;52.362;9.206;2023-06-26T06:18:58;25.00;71.00
7970;DHT22;4030;52.362;9.206;2023-06-26T06:21:23;25.10;70.90
7970;DHT22;4030;52.362;9.206;2023-06-26T06:23:49;25.10;70.70
7970;DHT22;4030;52.362;9.206;2023-06-26T06:26:15;25.20;70.60
7970;DHT22;4030;52.362;9.206;2023-06-26T06:28:40;25.30;70.30
7970;DHT22;4030;52.362;9.206;2023-06-26T06:31:06;25.30;69.80
7970;DHT22;4030;52.362;9.206;2023-06-26T06:33:32;25.40;69.80
7970;DHT22;4030;52.362;9.206;2023-06-26T06:35:58;25.50;69.80
7970;DHT22;4030;52.362;9.206;2023-06-26T06:38:24;25.50;69.70
7970;DHT22;4030;52.362;9.206;2023-06-26T06:40:50;25.50;69.60
7970;DHT22;4030;52.362;9.206;2023-06-26T06:43:16;25.60;69.40
7970;DHT22;4030;52.362;9.206;2023-06-26T06:45:42;25.60;69.30
7970;DHT22;4030;52.362;9.206;2023-06-26T06:48:07;25.70;69.20
7970;DHT22;4030;52.362;9.206;2023-06-26T06:50:33;25.70;69.10
7970;DHT22;4030;52.362;9.206;2023-06-26T06:52:59;25.80;69.20
7970;DHT22;4030;52.362;9.206;2023-06-26T06:55:24;25.80;69.80
7970;DHT22;4030;52.362;9.206;2023-06-26T06:57:51;25.90;68.90
7970;DHT22;4030;52.362;9.206;2023-06-26T07:00:17;25.90;68.90
7970;DHT22;4030;52.362;9.206;2023-06-26T07:02:43;26.00;68.80
7970;DHT22;4030;52.362;9.206;2023-06-26T07:05:10;26.00;68.70
7970;DHT22;4030;52.362;9.206;2023-06-26T07:07:36;26.10;69.30
7970;DHT22;4030;52.362;9.206;2023-06-26T07:10:08;26.10;68.40
7970;DHT22;4030;52.362;9.206;2023-06-26T07:12:35;26.20;68.60
7970;DHT22;4030;52.362;9.206;2023-06-26T07:15:02;26.20;68.60
7970;DHT22;4030;52.362;9.206;2023-06-26T07:17:30;26.30;68.60
7970;DHT22;4030;52.362;9.206;2023-06-26T07:19:56;26.40;68.90
7970;DHT22;4030;52.362;9.206;2023-06-26T07:22:23;26.40;68.50
7970;DHT22;4030;52.362;9.206;2023-06-26T07:24:48;26.50;68.30
7970;DHT22;4030;52.362;9.206;2023-06-26T07:27:15;26.50;68.10
7970;DHT22;4030;52.362;9.206;2023-06-26T07:29:42;26.60;68.20
7970;DHT22;4030;52.362;9.206;2023-06-26T07:32:07;26.70;68.20
7970;DHT22;4030;52.362;9.206;2023-06-26T07:34:33;26.70;68.10
7970;DHT22;4030;52.362;9.206;2023-06-26T07:36:59;26.80;68.10
7970;DHT22;4030;52.362;9.206;2023-06-26T07:39:25;26.80;68.20
7970;DHT22;4030;52.362;9.206;2023-06-26T07:41:51;26.80;68.20
7970;DHT22;4030;52.362;9.206;2023-06-26T07:44:16;26.90;68.10
7970;DHT22;4030;52.362;9.206;2023-06-26T07:46:42;26.90;68.00
7970;DHT22;4030;52.362;9.206;2023-06-26T07:49:08;27.00;67.80
7970;DHT22;4030;52.362;9.206;2023-06-26T07:51:33;27.10;67.70
7970;DHT22;4030;52.362;9.206;2023-06-26T07:53:59;27.20;67.60
7970;DHT22;4030;52.362;9.206;2023-06-26T07:56:25;27.20;67.20
7970;DHT22;4030;52.362;9.206;2023-06-26T07:58:50;27.30;67.00
7970;DHT22;4030;52.362;9.206;2023-06-26T08:01:16;27.30;67.00
7970;DHT22;4030;52.362;9.206;2023-06-26T08:03:42;27.40;66.90
7970;DHT22;4030;52.362;9.206;2023-06-26T08:06:08;27.60;67.20
7970;DHT22;4030;52.362;9.206;2023-06-26T08:08:33;27.70;67.50
7970;DHT22;4030;52.362;9.206;2023-06-26T08:10:59;27.60;67.30
7970;DHT22;4030;52.362;9.206;2023-06-26T08:13:25;27.70;67.40
7970;DHT22;4030;52.362;9.206;2023-06-26T08:15:50;27.60;67.40
7970;DHT22;4030;52.362;9.206;2023-06-26T08:18:17;27.50;67.20
7970;DHT22;4030;52.362;9.206;2023-06-26T08:20:43;27.50;67.10
7970;DHT22;4030;52.362;9.206;2023-06-26T08:23:09;27.50;66.90
7970;DHT22;4030;52.362;9.206;2023-06-26T08:25:35;27.60;66.70
7970;DHT22;4030;52.362;9.206;2023-06-26T08:28:00;27.70;66.70
7970;DHT22;4030;52.362;9.206;2023-06-26T08:30:26;27.80;66.90
7970;DHT22;4030;52.362;9.206;2023-06-26T08:32:55;27.80;67.40
7970;DHT22;4030;52.362;9.206;2023-06-26T08:35:20;27.90;67.40
7970;DHT22;4030;52.362;9.206;2023-06-26T08:37:46;27.90;67.40
7970;DHT22;4030;52.362;9.206;2023-06-26T08:40:12;28.00;67.40
7970;DHT22;4030;52.362;9.206;2023-06-26T08:42:42;28.10;67.20
7970;DHT22;4030;52.362;9.206;2023-06-26T08:45:08;28.20;66.80
7970;DHT22;4030;52.362;9.206;2023-06-26T08:47:35;28.20;66.30
7970;DHT22;4030;52.362;9.206;2023-06-26T08:50:13;28.30;66.50
7970;DHT22;4030;52.362;9.206;2023-06-26T08:52:43;28.20;66.70
7970;DHT22;4030;52.362;9.206;2023-06-26T08:55:18;28.20;66.90
7970;DHT22;4030;52.362;9.206;2023-06-26T08:57:47;28.20;67.10
7970;DHT22;4030;52.362;9.206;2023-06-26T09:00:13;28.20;67.00
7970;DHT22;4030;52.362;9.206;2023-06-26T09:02:40;28.30;67.00
7970;DHT22;4030;52.362;9.206;2023-06-26T09:05:07;28.40;66.90
7970;DHT22;4030;52.362;9.206;2023-06-26T09:07:32;28.50;66.40
7970;DHT22;4030;52.362;9.206;2023-06-26T09:09:58;28.50;66.30
7970;DHT22;4030;52.362;9.206;2023-06-26T09:12:26;28.50;66.90
7970;DHT22;4030;52.362;9.206;2023-06-26T09:14:54;28.40;67.30
7970;DHT22;4030;52.362;9.206;2023-06-26T09:17:25;28.50;67.10
7970;DHT22;4030;52.362;9.206;2023-06-26T09:19:53;28.50;67.10
7970;DHT22;4030;52.362;9.206;2023-06-26T09:22:18;28.70;67.60
7970;DHT22;4030;52.362;9.206;2023-06-26T09:24:44;28.70;68.30
7970;DHT22;4030;52.362;9.206;2023-06-26T09:27:11;28.60;69.00
7970;DHT22;4030;52.362;9.206;2023-06-26T09:29:37;28.50;68.90
7970;DHT22;4030;52.362;9.206;2023-06-26T09:32:03;28.40;69.70
7970;DHT22;4030;52.362;9.206;2023-06-26T09:34:33;28.30;70.30
7970;DHT22;4030;52.362;9.206;2023-06-26T09:36:59;28.20;70.60
7970;DHT22;4030;52.362;9.206;2023-06-26T09:39:30;28.10;71.20
7970;DHT22;4030;52.362;9.206;2023-06-26T09:41:56;27.90;72.20
7970;DHT22;4030;52.362;9.206;2023-06-26T09:44:23;27.70;72.50
7970;DHT22;4030;52.362;9.206;2023-06-26T09:46:49;27.50;73.10
7970;DHT22;4030;52.362;9.206;2023-06-26T09:49:14;27.30;73.70
7970;DHT22;4030;52.362;9.206;2023-06-26T09:51:42;27.20;73.80
7970;DHT22;4030;52.362;9.206;2023-06-26T09:54:08;27.00;73.60
7970;DHT22;4030;52.362;9.206;2023-06-26T09:56:35;27.00;73.40
7970;DHT22;4030;52.362;9.206;2023-06-26T09:59:03;27.00;73.30
7970;DHT22;4030;52.362;9.206;2023-06-26T10:01:30;27.10;73.30
7970;DHT22;4030;52.362;9.206;2023-06-26T10:03:57;27.30;73.20
7970;DHT22;4030;52.362;9.206;2023-06-26T10:06:32;27.60;73.30
7970;DHT22;4030;52.362;9.206;2023-06-26T10:09:03;27.80;73.00
7970;DHT22;4030;52.362;9.206;2023-06-26T10:11:41;28.00;72.70
7970;DHT22;4030;52.362;9.206;2023-06-26T10:14:17;28.10;72.20
7970;DHT22;4030;52.362;9.206;2023-06-26T10:16:45;28.20;72.00
7970;DHT22;4030;52.362;9.206;2023-06-26T10:19:13;28.20;71.60
7970;DHT22;4030;52.362;9.206;2023-06-26T10:21:40;28.20;71.60
7970;DHT22;4030;52.362;9.206;2023-06-26T10:24:06;28.20;71.60
7970;DHT22;4030;52.362;9.206;2023-06-26T10:26:39;28.20;71.70
7970;DHT22;4030;52.362;9.206;2023-06-26T10:29:08;28.10;71.70
7970;DHT22;4030;52.362;9.206;2023-06-26T10:31:34;28.10;72.20
7970;DHT22;4030;52.362;9.206;2023-06-26T10:34:01;28.10;71.90
7970;DHT22;4030;52.362;9.206;2023-06-26T10:36:30;28.10;71.50
7970;DHT22;4030;52.362;9.206;2023-06-26T10:38:58;28.00;71.70
7970;DHT22;4030;52.362;9.206;2023-06-26T10:41:40;28.00;72.00
7970;DHT22;4030;52.362;9.206;2023-06-26T10:44:11;28.00;72.50
7970;DHT22;4030;52.362;9.206;2023-06-26T10:46:50;27.90;71.80
7970;DHT22;4030;52.362;9.206;2023-06-26T10:49:24;27.80;71.90
7970;DHT22;4030;52.362;9.206;2023-06-26T10:51:51;27.60;72.70
7970;DHT22;4030;52.362;9.206;2023-06-26T10:54:19;27.50;73.10
7970;DHT22;4030;52.362;9.206;2023-06-26T10:56:46;27.30;73.80
7970;DHT22;4030;52.362;9.206;2023-06-26T10:59:20;27.30;74.40
7970;DHT22;4030;52.362;9.206;2023-06-26T11:01:54;27.30;74.30
7970;DHT22;4030;52.362;9.206;2023-06-26T11:04:39;27.30;74.20
7970;DHT22;4030;52.362;9.206;2023-06-26T11:10:09;27.40;74.60
7970;DHT22;4030;52.362;9.206;2023-06-26T11:12:42;27.50;74.00
7970;DHT22;4030;52.362;9.206;2023-06-26T11:15:10;27.50;74.20
7970;DHT22;4030;52.362;9.206;2023-06-26T11:17:41;27.30;73.70
7970;DHT22;4030;52.362;9.206;2023-06-26T11:20:09;27.30;73.70
7970;DHT22;4030;52.362;9.206;2023-06-26T11:22:38;27.20;73.50
7970;DHT22;4030;52.362;9.206;2023-06-26T11:25:06;27.00;73.70
7970;DHT22;4030;52.362;9.206;2023-06-26T11:30:08;26.80;74.00
7970;DHT22;4030;52.362;9.206;2023-06-26T11:32:39;26.70;74.90
7970;DHT22;4030;52.362;9.206;2023-06-26T11:35:05;26.80;74.00
7970;DHT22;4030;52.362;9.206;2023-06-26T11:37:32;26.90;74.00
7970;DHT22;4030;52.362;9.206;2023-06-26T11:39:58;27.10;73.70
7970;DHT22;4030;52.362;9.206;2023-06-26T11:42:23;27.40;73.10
7970;DHT22;4030;52.362;9.206;2023-06-26T11:44:51;27.60;72.50
7970;DHT22;4030;52.362;9.206;2023-06-26T11:47:19;27.70;72.00
7970;DHT22;4030;52.362;9.206;2023-06-26T11:49:47;27.70;69.80
7970;DHT22;4030;52.362;9.206;2023-06-26T11:52:15;27.60;69.90
7970;DHT22;4030;52.362;9.206;2023-06-26T11:54:42;27.50;69.60
7970;DHT22;4030;52.362;9.206;2023-06-26T11:57:08;27.60;69.30
7970;DHT22;4030;52.362;9.206;2023-06-26T11:59:40;27.70;68.70
7970;DHT22;4030;52.362;9.206;2023-06-26T12:02:10;27.80;68.00
7970;DHT22;4030;52.362;9.206;2023-06-26T12:04:41;28.00;67.40
7970;DHT22;4030;52.362;9.206;2023-06-26T12:07:09;28.10;66.80
7970;DHT22;4030;52.362;9.206;2023-06-26T12:09:46;28.20;65.60
7970;DHT22;4030;52.362;9.206;2023-06-26T12:12:15;28.50;64.80
7970;DHT22;4030;52.362;9.206;2023-06-26T12:14:42;28.80;64.50
7970;DHT22;4030;52.362;9.206;2023-06-26T12:17:10;29.10;63.50
7970;DHT22;4030;52.362;9.206;2023-06-26T12:19:37;29.50;61.90
7970;DHT22;4030;52.362;9.206;2023-06-26T12:22:08;29.60;60.70
7970;DHT22;4030;52.362;9.206;2023-06-26T12:24:36;29.70;59.90
7970;DHT22;4030;52.362;9.206;2023-06-26T12:27:08;29.70;59.10
7970;DHT22;4030;52.362;9.206;2023-06-26T12:29:35;29.50;59.20
7970;DHT22;4030;52.362;9.206;2023-06-26T12:32:01;29.40;60.00
7970;DHT22;4030;52.362;9.206;2023-06-26T12:34:30;29.40;58.80
7970;DHT22;4030;52.362;9.206;2023-06-26T12:37:05;29.50;58.60
7970;DHT22;4030;52.362;9.206;2023-06-26T12:39:58;29.60;58.70
7970;DHT22;4030;52.362;9.206;2023-06-26T12:42:25;29.70;58.40
7970;DHT22;4030;52.362;9.206;2023-06-26T12:44:54;29.90;58.10
7970;DHT22;4030;52.362;9.206;2023-06-26T12:47:26;30.10;57.30
7970;DHT22;4030;52.362;9.206;2023-06-26T12:49:53;30.20;56.80
7970;DHT22;4030;52.362;9.206;2023-06-26T12:52:20;30.30;56.40
7970;DHT22;4030;52.362;9.206;2023-06-26T12:54:47;30.40;55.70
7970;DHT22;4030;52.362;9.206;2023-06-26T12:57:17;30.50;54.80
7970;DHT22;4030;52.362;9.206;2023-06-26T12:59:42;30.60;54.30
7970;DHT22;4030;52.362;9.206;2023-06-26T13:02:09;30.70;54.30
7970;DHT22;4030;52.362;9.206;2023-06-26T13:04:36;30.70;54.20
7970;DHT22;4030;52.362;9.206;2023-06-26T13:07:05;30.70;54.40
7970;DHT22;4030;52.362;9.206;2023-06-26T13:09:35;30.70;54.60
7970;DHT22;4030;52.362;9.206;2023-06-26T13:12:02;30.70;54.00
7970;DHT22;4030;52.362;9.206;2023-06-26T13:14:29;30.80;52.90
7970;DHT22;4030;52.362;9.206;2023-06-26T13:16:55;30.90;52.50
7970;DHT22;4030;52.362;9.206;2023-06-26T13:19:21;31.10;52.60
7970;DHT22;4030;52.362;9.206;2023-06-26T13:21:47;31.20;52.30
7970;DHT22;4030;52.362;9.206;2023-06-26T13:24:12;31.40;52.30
7970;DHT22;4030;52.362;9.206;2023-06-26T13:26:38;31.50;51.40
7970;DHT22;4030;52.362;9.206;2023-06-26T13:29:05;31.60;51.20
7970;DHT22;4030;52.362;9.206;2023-06-26T13:31:31;31.70;50.20
7970;DHT22;4030;52.362;9.206;2023-06-26T13:34:00;31.70;50.10
7970;DHT22;4030;52.362;9.206;2023-06-26T13:36:27;31.60;50.70
7970;DHT22;4030;52.362;9.206;2023-06-26T13:38:52;31.40;49.80
7970;DHT22;4030;52.362;9.206;2023-06-26T13:41:24;31.40;50.00
7970;DHT22;4030;52.362;9.206;2023-06-26T13:43:50;31.30;49.70
7970;DHT22;4030;52.362;9.206;2023-06-26T13:46:17;31.10;49.40
7970;DHT22;4030;52.362;9.206;2023-06-26T13:48:44;31.00;49.60
7970;DHT22;4030;52.362;9.206;2023-06-26T13:51:10;30.90;49.10
7970;DHT22;4030;52.362;9.206;2023-06-26T13:53:35;30.70;49.50
7970;DHT22;4030;52.362;9.206;2023-06-26T13:56:01;30.70;50.20
7970;DHT22;4030;52.362;9.206;2023-06-26T13:58:27;30.70;50.10
7970;DHT22;4030;52.362;9.206;2023-06-26T14:00:55;30.80;50.10
7970;DHT22;4030;52.362;9.206;2023-06-26T14:03:20;31.00;50.20
7970;DHT22;4030;52.362;9.206;2023-06-26T14:05:46;31.20;50.60
7970;DHT22;4030;52.362;9.206;2023-06-26T14:08:13;31.40;50.50
7970;DHT22;4030;52.362;9.206;2023-06-26T14:10:39;31.50;50.40
7970;DHT22;4030;52.362;9.206;2023-06-26T14:13:04;31.70;50.10
7970;DHT22;4030;52.362;9.206;2023-06-26T14:15:30;31.70;50.30
7970;DHT22;4030;52.362;9.206;2023-06-26T14:17:56;31.50;49.90
7970;DHT22;4030;52.362;9.206;2023-06-26T14:20:22;31.40;49.80
7970;DHT22;4030;52.362;9.206;2023-06-26T14:22:48;31.20;49.50
7970;DHT22;4030;52.362;9.206;2023-06-26T14:25:15;31.00;49.70
7970;DHT22;4030;52.362;9.206;2023-06-26T14:27:41;30.90;49.80
7970;DHT22;4030;52.362;9.206;2023-06-26T14:30:07;30.60;50.10
7970;DHT22;4030;52.362;9.206;2023-06-26T14:32:34;30.30;49.70
7970;DHT22;4030;52.362;9.206;2023-06-26T14:35:00;29.90;49.70
7970;DHT22;4030;52.362;9.206;2023-06-26T14:37:29;29.90;50.50
7970;DHT22;4030;52.362;9.206;2023-06-26T14:39:55;29.80;50.70
7970;DHT22;4030;52.362;9.206;2023-06-26T14:42:21;29.90;50.90
7970;DHT22;4030;52.362;9.206;2023-06-26T14:44:47;29.80;50.80
7970;DHT22;4030;52.362;9.206;2023-06-26T14:47:19;29.80;50.50
7970;DHT22;4030;52.362;9.206;2023-06-26T14:49:45;29.90;50.70
7970;DHT22;4030;52.362;9.206;2023-06-26T14:52:11;29.80;50.40
7970;DHT22;4030;52.362;9.206;2023-06-26T14:54:37;29.90;50.30
7970;DHT22;4030;52.362;9.206;2023-06-26T14:57:03;30.00;50.20
7970;DHT22;4030;52.362;9.206;2023-06-26T14:59:29;30.20;50.10
7970;DHT22;4030;52.362;9.206;2023-06-26T15:01:55;30.30;49.90
7970;DHT22;4030;52.362;9.206;2023-06-26T15:04:20;30.40;49.70
7970;DHT22;4030;52.362;9.206;2023-06-26T15:06:46;30.40;49.80
7970;DHT22;4030;52.362;9.206;2023-06-26T15:09:12;30.30;49.70
7970;DHT22;4030;52.362;9.206;2023-06-26T15:11:37;30.20;49.50
7970;DHT22;4030;52.362;9.206;2023-06-26T15:14:03;30.20;49.40
7970;DHT22;4030;52.362;9.206;2023-06-26T15:16:29;30.00;49.20
7970;DHT22;4030;52.362;9.206;2023-06-26T15:18:54;29.90;49.10
7970;DHT22;4030;52.362;9.206;2023-06-26T15:21:20;29.80;49.10
7970;DHT22;4030;52.362;9.206;2023-06-26T15:23:47;29.70;49.20
7970;DHT22;4030;52.362;9.206;2023-06-26T15:26:13;29.60;49.40
7970;DHT22;4030;52.362;9.206;2023-06-26T15:28:39;29.50;49.50
7970;DHT22;4030;52.362;9.206;2023-06-26T15:31:05;29.50;49.70
7970;DHT22;4030;52.362;9.206;2023-06-26T15:33:30;29.40;49.80
7970;DHT22;4030;52.362;9.206;2023-06-26T15:35:56;29.40;50.00
7970;DHT22;4030;52.362;9.206;2023-06-26T15:38:22;29.20;49.80
7970;DHT22;4030;52.362;9.206;2023-06-26T15:40:47;29.20;49.80
7970;DHT22;4030;52.362;9.206;2023-06-26T15:43:13;29.20;49.70
7970;DHT22;4030;52.362;9.206;2023-06-26T15:45:39;29.10;49.90
7970;DHT22;4030;52.362;9.206;2023-06-26T15:48:05;29.10;49.90
7970;DHT22;4030;52.362;9.206;2023-06-26T15:50:31;29.10;50.00
7970;DHT22;4030;52.362;9.206;2023-06-26T15:52:56;29.00;49.90
7970;DHT22;4030;52.362;9.206;2023-06-26T15:55:22;28.90;49.90
7970;DHT22;4030;52.362;9.206;2023-06-26T15:57:48;28.90;50.00
7970;DHT22;4030;52.362;9.206;2023-06-26T16:00:14;28.80;50.00
7970;DHT22;4030;52.362;9.206;2023-06-26T16:02:42;28.80;50.40
7970;DHT22;4030;52.362;9.206;2023-06-26T16:05:07;28.70;50.10
7970;DHT22;4030;52.362;9.206;2023-06-26T16:07:33;28.70;49.90
7970;DHT22;4030;52.362;9.206;2023-06-26T16:09:59;28.60;49.80
7970;DHT22;4030;52.362;9.206;2023-06-26T16:12:25;28.70;49.70